createdAt,value
2022-08-12T04:45:55.518Z,1007.17
2022-08-12T04:46:56.525Z,1007.18
2022-08-12T04:47:56.518Z,1007.18
2022-08-12T04:48:56.490Z,1007.19
2022-08-12T04:49:56.475Z,1007.20
2022-08-12T04:50:56.486Z,1007.20
2022-08-12T04:51:59.445Z,1007.19
2022-08-12T04:52:56.447Z,1007.20
2022-08-12T04:53:56.431Z,1007.21
2022-08-12T04:54:56.425Z,1007.22
2022-08-12T04:55:56.427Z,1007.21
2022-08-12T04:57:04.869Z,1007.21
2022-08-12T04:57:56.401Z,1007.19
2022-08-12T04:58:56.378Z,1007.18
2022-08-12T04:59:56.369Z,1007.17
2022-08-12T05:00:56.379Z,1007.16
2022-08-12T05:01:56.395Z,1007.16
2022-08-12T05:02:56.414Z,1007.16
2022-08-12T05:03:56.326Z,1007.16
2022-08-12T05:05:00.992Z,1007.15
2022-08-12T05:05:56.317Z,1007.13
2022-08-12T05:06:56.300Z,1007.13
2022-08-12T05:07:56.282Z,1007.14
2022-08-12T05:08:56.279Z,1007.14
2022-08-12T05:09:59.932Z,1007.13
2022-08-12T05:10:56.292Z,1007.14
2022-08-12T05:11:56.245Z,1007.15
2022-08-12T05:12:56.245Z,1007.16
2022-08-12T05:13:56.227Z,1007.16
2022-08-12T05:14:56.221Z,1007.16
2022-08-12T05:16:05.097Z,1007.17
2022-08-12T05:16:56.199Z,1007.18
2022-08-12T05:17:56.355Z,1007.19
2022-08-12T05:18:56.174Z,1007.20
2022-08-12T05:19:57.216Z,1007.20
2022-08-12T05:20:56.176Z,1007.20
2022-08-12T05:21:56.144Z,1007.20
2022-08-12T05:22:57.993Z,1007.20
2022-08-12T05:23:56.117Z,1007.21
2022-08-12T05:24:56.115Z,1007.19
2022-08-12T05:25:56.118Z,1007.19
2022-08-12T05:26:56.137Z,1007.18
2022-08-12T05:27:59.179Z,1007.18
2022-08-12T05:28:56.084Z,1007.18
2022-08-12T05:30:06.721Z,1007.17
2022-08-12T05:30:56.068Z,1007.17
2022-08-12T05:31:56.040Z,1007.17
2022-08-12T05:33:00.076Z,1007.16
2022-08-12T05:33:56.016Z,1007.16
2022-08-12T05:34:56.008Z,1007.16
2022-08-12T05:35:56.009Z,1007.17
2022-08-12T05:36:56.013Z,1007.17
2022-08-12T05:37:55.972Z,1007.18
2022-08-12T05:38:55.969Z,1007.18
2022-08-12T05:39:56.052Z,1007.18
2022-08-12T05:40:55.960Z,1007.19
2022-08-12T05:41:55.933Z,1007.19
2022-08-12T05:42:55.922Z,1007.20
2022-08-12T05:43:55.921Z,1007.21
2022-08-12T05:44:55.907Z,1007.20
2022-08-12T05:45:55.905Z,1007.20
2022-08-12T05:46:55.881Z,1007.20
2022-08-12T05:47:55.866Z,1007.20
2022-08-12T05:48:55.884Z,1007.21
2022-08-12T05:49:55.847Z,1007.23
2022-08-12T05:50:55.858Z,1007.25
2022-08-12T05:51:55.827Z,1007.27
2022-08-12T05:52:55.833Z,1007.27
2022-08-12T05:53:55.805Z,1007.28
2022-08-12T05:54:57.875Z,1007.30
2022-08-12T05:55:55.800Z,1007.31
2022-08-12T05:56:55.777Z,1007.33
2022-08-12T05:57:55.764Z,1007.34
2022-08-12T05:58:55.754Z,1007.34
2022-08-12T05:59:55.741Z,1007.34
2022-08-12T06:00:55.748Z,1007.34
2022-08-12T06:02:12.521Z,1007.33
2022-08-12T06:02:55.804Z,1007.33
2022-08-12T06:03:55.698Z,1007.33
2022-08-12T06:04:55.695Z,1007.34
2022-08-12T06:05:55.934Z,1007.35
2022-08-12T06:06:55.671Z,1007.35
2022-08-12T06:08:01.639Z,1007.36
2022-08-12T06:08:55.647Z,1007.36
2022-08-12T06:09:55.632Z,1007.36
2022-08-12T06:10:55.641Z,1007.37
2022-08-12T06:12:04.498Z,1007.38
2022-08-12T06:12:55.605Z,1007.38
2022-08-12T06:13:55.587Z,1007.40
2022-08-12T06:14:55.585Z,1007.41
2022-08-12T06:15:55.600Z,1007.42
2022-08-12T06:16:55.562Z,1007.43
2022-08-12T06:17:55.546Z,1007.43
2022-08-12T06:18:55.538Z,1007.44
2022-08-12T06:20:26.685Z,1007.44
2022-08-12T06:20:55.537Z,1007.45
2022-08-12T06:21:55.510Z,1007.45
2022-08-12T06:22:55.495Z,1007.46
2022-08-12T06:23:55.478Z,1007.45
2022-08-12T06:24:55.481Z,1007.45
2022-08-12T06:25:55.460Z,1007.45
2022-08-12T06:26:55.469Z,1007.45
2022-08-12T06:28:06.879Z,1007.46
2022-08-12T06:28:55.436Z,1007.47
2022-08-12T06:30:10.254Z,1007.49
2022-08-12T06:31:24.115Z,1007.51
2022-08-12T06:31:55.415Z,1007.53
2022-08-12T06:33:11.435Z,1007.53
2022-08-12T06:35:22.620Z,1007.55
2022-08-12T06:35:48.630Z,1007.54
2022-08-12T06:35:57.717Z,1007.54
2022-08-12T06:36:55.366Z,1007.53
2022-08-12T06:37:56.813Z,1007.53
2022-08-12T06:38:55.328Z,1007.54
2022-08-12T06:39:58.074Z,1007.52
2022-08-12T06:40:55.298Z,1007.51
2022-08-12T06:42:04.965Z,1007.49
2022-08-12T06:42:55.292Z,1007.50
2022-08-12T06:44:06.658Z,1007.48
2022-08-12T06:44:55.264Z,1007.48
2022-08-12T06:45:55.246Z,1007.49
2022-08-12T06:46:56.795Z,1007.49
2022-08-12T06:47:55.220Z,1007.50
2022-08-12T06:48:55.220Z,1007.50
2022-08-12T06:49:55.207Z,1007.51
2022-08-12T06:50:55.201Z,1007.52
2022-08-12T06:51:56.160Z,1007.53
2022-08-12T06:52:55.177Z,1007.53
2022-08-12T06:53:55.159Z,1007.54
2022-08-12T06:54:55.157Z,1007.54
2022-08-12T06:55:57.849Z,1007.54
2022-08-12T06:57:04.878Z,1007.54
2022-08-12T06:58:08.207Z,1007.54
2022-08-12T06:58:55.116Z,1007.53
2022-08-12T06:59:55.103Z,1007.52
2022-08-12T07:00:55.181Z,1007.52
2022-08-12T07:01:55.098Z,1007.51
2022-08-12T07:02:55.071Z,1007.51
2022-08-12T07:03:55.064Z,1007.51
2022-08-12T07:04:55.053Z,1007.52
2022-08-12T07:05:55.039Z,1007.52
2022-08-12T07:06:55.042Z,1007.52
2022-08-12T07:07:55.024Z,1007.53
2022-08-12T07:08:55.013Z,1007.53
2022-08-12T07:10:04.859Z,1007.52
2022-08-12T07:10:54.995Z,1007.52
2022-08-12T07:11:55.001Z,1007.51
2022-08-12T07:12:54.979Z,1007.50
2022-08-12T07:14:12.559Z,1007.51
2022-08-12T07:14:54.952Z,1007.50
2022-08-12T07:15:54.938Z,1007.51
2022-08-12T07:16:54.938Z,1007.50
2022-08-12T07:17:54.938Z,1007.50
2022-08-12T07:18:54.907Z,1007.49
2022-08-12T07:19:58.002Z,1007.48
2022-08-12T07:20:54.896Z,1007.48
2022-08-12T07:21:59.899Z,1007.47
2022-08-12T07:22:54.871Z,1007.46
2022-08-12T07:23:54.856Z,1007.46
2022-08-12T07:24:54.842Z,1007.46
2022-08-12T07:25:58.354Z,1007.47
2022-08-12T07:26:54.837Z,1007.48
2022-08-12T07:27:54.818Z,1007.50
2022-08-12T07:28:54.793Z,1007.52
2022-08-12T07:29:58.114Z,1007.54
2022-08-12T07:30:54.783Z,1007.58
2022-08-12T07:31:54.791Z,1007.59
2022-08-12T07:32:58.538Z,1007.61
2022-08-12T07:33:54.759Z,1007.62
2022-08-12T07:34:54.801Z,1007.63
2022-08-12T07:35:54.735Z,1007.65
2022-08-12T07:36:54.731Z,1007.67
2022-08-12T07:37:54.705Z,1007.67
2022-08-12T07:38:54.695Z,1007.68
2022-08-12T07:40:00.415Z,1007.68
2022-08-12T07:40:54.679Z,1007.68
2022-08-12T07:41:54.678Z,1007.68
2022-08-12T07:42:54.653Z,1007.68
2022-08-12T07:43:54.645Z,1007.69
2022-08-12T07:44:54.639Z,1007.70
2022-08-12T07:45:54.628Z,1007.72
2022-08-12T07:46:54.626Z,1007.73
2022-08-12T07:47:54.620Z,1007.74
2022-08-12T07:48:54.589Z,1007.74
2022-08-12T07:50:04.147Z,1007.76
2022-08-12T07:50:54.573Z,1007.77
2022-08-12T07:51:54.585Z,1007.77
2022-08-12T07:52:54.547Z,1007.78
2022-08-12T07:54:01.108Z,1007.79
2022-08-12T07:54:54.530Z,1007.79
2022-08-12T07:55:54.520Z,1007.81
2022-08-12T07:56:54.512Z,1007.80
2022-08-12T07:57:54.498Z,1007.81
2022-08-12T07:58:54.479Z,1007.80
2022-08-12T07:59:55.843Z,1007.80
2022-08-12T08:00:54.466Z,1007.81
2022-08-12T08:01:54.532Z,1007.81
2022-08-12T08:02:54.457Z,1007.80
2022-08-12T08:03:54.432Z,1007.80
2022-08-12T08:04:54.416Z,1007.80
2022-08-12T08:05:54.414Z,1007.80
2022-08-12T08:06:54.415Z,1007.80
2022-08-12T08:07:54.391Z,1007.80
2022-08-12T08:08:54.379Z,1007.80
2022-08-12T08:09:58.595Z,1007.78
2022-08-12T08:10:54.357Z,1007.79
2022-08-12T08:11:54.368Z,1007.80
2022-08-12T08:12:54.342Z,1007.79
2022-08-12T08:13:54.328Z,1007.79
2022-08-12T08:14:54.314Z,1007.80
2022-08-12T08:16:03.410Z,1007.79
2022-08-12T08:16:54.315Z,1007.79
2022-08-12T08:17:54.288Z,1007.78
2022-08-12T08:18:54.282Z,1007.79
2022-08-12T08:20:02.903Z,1007.79
2022-08-12T08:20:54.276Z,1007.78
2022-08-12T08:21:54.295Z,1007.79
2022-08-12T08:22:54.290Z,1007.80
2022-08-12T08:23:56.364Z,1007.80
2022-08-12T08:24:54.204Z,1007.77
2022-08-12T08:25:54.206Z,1007.78
2022-08-12T08:26:54.191Z,1007.76
2022-08-12T08:27:54.194Z,1007.75
2022-08-12T08:28:54.183Z,1007.74
2022-08-12T08:29:54.165Z,1007.76
2022-08-12T08:30:54.146Z,1007.75
2022-08-12T08:31:54.139Z,1007.73
2022-08-12T08:32:54.153Z,1007.72
2022-08-12T08:34:09.022Z,1007.70
2022-08-12T08:34:54.823Z,1007.70
2022-08-12T08:35:54.368Z,1007.68
2022-08-12T08:36:54.083Z,1007.66
2022-08-12T08:37:54.096Z,1007.65
2022-08-12T08:38:57.770Z,1007.63
2022-08-12T08:39:54.125Z,1007.63
2022-08-12T08:40:54.043Z,1007.63
2022-08-12T08:42:16.938Z,1007.64
2022-08-12T08:42:54.049Z,1007.64
2022-08-12T08:43:54.022Z,1007.64
2022-08-12T08:44:57.903Z,1007.63
2022-08-12T08:45:54.000Z,1007.64
2022-08-12T08:46:53.988Z,1007.64
2022-08-12T08:47:57.162Z,1007.66
2022-08-12T08:48:57.654Z,1007.64
2022-08-12T08:49:53.973Z,1007.63
2022-08-12T08:51:04.105Z,1007.62
2022-08-12T08:51:53.948Z,1007.61
2022-08-12T08:52:53.962Z,1007.60
2022-08-12T08:53:53.920Z,1007.60
2022-08-12T08:54:53.911Z,1007.59
2022-08-12T08:56:04.482Z,1007.58
2022-08-12T08:56:53.898Z,1007.63
2022-08-12T08:57:53.895Z,1007.62
2022-08-12T08:58:53.894Z,1007.63
2022-08-12T08:59:53.871Z,1007.64
2022-08-12T09:00:53.851Z,1007.63
2022-08-12T09:01:53.904Z,1007.62
2022-08-12T09:02:58.770Z,1007.64
2022-08-12T09:28:49.679Z,1007.61
2022-08-12T09:28:58.169Z,1007.52
2022-08-12T09:30:12.509Z,1007.51
2022-08-12T09:30:58.989Z,1007.51
2022-08-12T09:32:07.437Z,1007.48
2022-08-12T09:33:05.923Z,1007.44
2022-08-12T09:34:27.638Z,1007.48
2022-08-12T09:34:58.085Z,1007.50
2022-08-12T09:36:04.742Z,1007.45
2022-08-12T09:37:01.583Z,1007.48
2022-08-12T09:38:00.855Z,1007.50
2022-08-12T09:38:59.144Z,1007.51
2022-08-12T09:40:05.031Z,1007.51
2022-08-12T09:42:08.422Z,1007.51
2022-08-12T09:42:56.814Z,1007.50
2022-08-12T09:43:18.680Z,1007.48
2022-08-12T09:44:01.145Z,1007.44
2022-08-12T09:45:18.395Z,1007.45
2022-08-12T09:46:06.466Z,1007.46
2022-08-12T09:46:57.957Z,1007.46
2022-08-12T09:47:59.861Z,1007.43
2022-08-12T09:48:57.932Z,1007.41
2022-08-12T09:49:58.903Z,1007.42
2022-08-12T09:51:01.564Z,1007.40
2022-08-12T09:51:57.919Z,1007.39
2022-08-12T09:53:03.850Z,1007.39
2022-08-12T09:54:08.310Z,1007.38
2022-08-12T09:55:02.412Z,1007.37
2022-08-12T09:56:06.666Z,1007.38
2022-08-12T09:58:50.951Z,1007.33
2022-08-12T09:59:05.345Z,1007.29
2022-08-12T09:59:10.188Z,1007.31
2022-08-12T10:00:13.044Z,1007.28
2022-08-12T10:01:15.472Z,1007.26
2022-08-12T10:02:43.307Z,1007.25
2022-08-12T10:03:32.175Z,1007.22
2022-08-12T10:04:10.247Z,1007.23
2022-08-12T10:05:13.887Z,1007.25
2022-08-12T10:06:20.414Z,1007.28
2022-08-12T10:07:13.005Z,1007.28
2022-08-12T10:08:10.118Z,1007.24
2022-08-12T10:09:10.093Z,1007.22
2022-08-12T10:10:22.282Z,1007.21
2022-08-12T10:11:18.647Z,1007.22
2022-08-12T10:12:13.013Z,1007.21
2022-08-12T10:13:12.524Z,1007.23
2022-08-12T10:14:13.444Z,1007.17
2022-08-12T10:15:15.117Z,1007.16
2022-08-12T10:16:21.803Z,1007.15
2022-08-12T10:17:10.014Z,1007.21
2022-08-12T10:18:10.016Z,1007.19
2022-08-12T10:19:17.095Z,1007.18
2022-08-12T10:20:12.025Z,1007.20
2022-08-12T10:21:09.973Z,1007.19
2022-08-12T10:22:17.136Z,1007.19
2022-08-12T10:23:12.465Z,1007.15
2022-08-12T10:24:09.943Z,1007.16
2022-08-12T10:25:17.369Z,1007.17
2022-08-12T10:26:36.646Z,1007.16
2022-08-12T10:27:14.180Z,1007.16
2022-08-12T10:28:24.116Z,1007.16
2022-08-12T10:30:01.824Z,1007.14
2022-08-12T10:30:46.955Z,1007.11
2022-08-12T10:31:16.308Z,1007.07
2022-08-12T10:32:20.933Z,1007.04
2022-08-12T10:33:18.330Z,1007.04
2022-08-12T10:34:23.576Z,1007.01
2022-08-12T10:35:09.859Z,1007.01
2022-08-12T10:36:09.824Z,1006.98
2022-08-12T10:37:20.983Z,1007.00
2022-08-12T10:38:33.325Z,1006.94
2022-08-12T10:40:02.008Z,1006.92
2022-08-12T10:40:15.718Z,1006.91
2022-08-12T10:41:12.365Z,1006.90
2022-08-12T10:42:09.841Z,1006.88
2022-08-12T10:43:09.777Z,1006.89
2022-08-12T10:44:09.756Z,1006.82
2022-08-12T10:45:09.747Z,1006.83
2022-08-12T10:46:13.839Z,1006.82
2022-08-12T10:48:01.182Z,1006.87
2022-08-12T10:48:34.308Z,1006.80
2022-08-12T10:50:02.725Z,1006.84
2022-08-12T10:50:35.727Z,1006.89
2022-08-12T10:52:02.507Z,1006.89
2022-08-12T10:52:34.856Z,1006.88
2022-08-12T10:53:09.719Z,1006.87
2022-08-12T10:54:09.665Z,1006.89
2022-08-12T10:55:13.337Z,1006.86
2022-08-12T10:56:09.628Z,1006.85
2022-08-12T10:57:18.168Z,1006.81
2022-08-12T10:58:15.225Z,1006.78
2022-08-12T10:59:10.856Z,1006.81
2022-08-12T11:00:34.570Z,1006.76
2022-08-12T11:03:01.596Z,1006.76
2022-08-12T11:04:49.054Z,1006.81
2022-08-12T11:04:54.949Z,1006.74
2022-08-12T11:07:08.365Z,1006.73
2022-08-12T11:08:42.763Z,1006.66
2022-08-12T11:08:48.856Z,1006.69
2022-08-12T11:10:00.280Z,1006.64
2022-08-12T11:10:48.771Z,1006.66
2022-08-12T11:12:37.094Z,1006.62
2022-08-12T11:13:01.930Z,1006.61
2022-08-12T11:13:49.282Z,1006.59
2022-08-12T11:14:51.468Z,1006.59
2022-08-12T11:16:04.293Z,1006.59
2022-08-12T11:17:35.034Z,1006.56
2022-08-12T11:17:59.161Z,1006.55
2022-08-12T11:18:48.705Z,1006.55
2022-08-12T11:19:48.695Z,1006.56
2022-08-12T11:20:49.190Z,1006.57
2022-08-12T11:21:58.444Z,1006.57
2022-08-12T11:22:57.933Z,1006.54
2022-08-12T11:23:53.633Z,1006.55
2022-08-12T11:24:51.322Z,1006.51
2022-08-12T11:25:58.331Z,1006.49
2022-08-12T11:26:48.648Z,1006.44
2022-08-12T11:27:51.303Z,1006.44
2022-08-12T11:28:59.295Z,1006.50
2022-08-12T11:30:06.081Z,1006.46
2022-08-12T11:30:48.576Z,1006.41
2022-08-12T11:32:01.638Z,1006.47
2022-08-12T11:32:48.576Z,1006.39
2022-08-12T11:34:05.706Z,1006.43
2022-08-12T11:34:59.343Z,1006.40
2022-08-12T11:35:48.531Z,1006.44
2022-08-12T11:36:53.513Z,1006.44
2022-08-12T11:37:58.084Z,1006.43
2022-08-12T11:38:50.884Z,1006.43
2022-08-12T11:40:48.453Z,1006.45
2022-08-12T11:41:48.435Z,1006.44
2022-08-12T11:42:48.600Z,1006.41
2022-08-12T11:43:50.610Z,1006.43
2022-08-12T11:44:48.417Z,1006.32
2022-08-12T11:45:52.970Z,1006.29
2022-08-12T11:46:51.447Z,1006.32
2022-08-12T11:47:49.275Z,1006.33
2022-08-12T11:48:51.512Z,1006.29
2022-08-12T11:49:51.922Z,1006.34
2022-08-12T11:50:48.349Z,1006.30
2022-08-12T11:51:57.648Z,1006.30
2022-08-12T11:52:56.628Z,1006.30
2022-08-12T11:53:59.346Z,1006.29
2022-08-12T11:54:51.201Z,1006.24
2022-08-12T11:55:48.304Z,1006.25
2022-08-12T11:56:52.465Z,1006.26
2022-08-12T11:58:47.772Z,1006.26
2022-08-12T12:02:04.751Z,1006.26
2022-08-12T12:02:10.327Z,1006.20
2022-08-12T12:02:20.165Z,1006.20
2022-08-12T12:03:17.312Z,1006.14
2022-08-12T12:04:29.170Z,1006.14
2022-08-12T12:05:15.770Z,1006.10
2022-08-12T12:06:16.870Z,1006.07
2022-08-12T12:07:15.976Z,1006.09
2022-08-12T12:08:38.164Z,1006.11
2022-08-12T12:09:16.671Z,1006.13
2022-08-12T12:10:15.716Z,1006.14
2022-08-12T12:11:15.707Z,1006.15
2022-08-12T12:12:15.696Z,1006.16
2022-08-12T12:13:22.989Z,1006.13
2022-08-12T12:14:15.856Z,1006.14
2022-08-12T12:15:15.672Z,1006.14
2022-08-12T12:16:15.664Z,1006.17
2022-08-12T12:17:15.654Z,1006.18
2022-08-12T12:18:15.641Z,1006.16
2022-08-12T12:19:15.655Z,1006.22
2022-08-12T12:20:15.618Z,1006.23
2022-08-12T12:21:15.617Z,1006.23
2022-08-12T12:22:23.636Z,1006.21
2022-08-12T12:23:28.995Z,1006.16
2022-08-12T12:24:20.863Z,1006.17
2022-08-12T12:25:15.582Z,1006.08
2022-08-12T12:26:34.768Z,1006.09
2022-08-12T12:27:15.844Z,1006.11
2022-08-12T12:28:36.737Z,1006.08
2022-08-12T12:30:18.875Z,1006.11
2022-08-12T12:30:34.342Z,1006.07
2022-08-12T12:32:09.940Z,1006.08
2022-08-12T12:32:16.530Z,1006.06
2022-08-12T12:33:18.074Z,1006.08
2022-08-12T12:34:30.438Z,1006.07
2022-08-12T12:36:05.827Z,1006.06
2022-08-12T12:36:30.306Z,1006.07
2022-08-12T12:37:16.444Z,1006.06
2022-08-12T12:38:15.464Z,1006.02
2022-08-12T12:39:15.502Z,1005.98
2022-08-12T12:40:15.511Z,1005.96
2022-08-12T12:41:16.800Z,1005.90
2022-08-12T12:42:43.102Z,1005.91
2022-08-12T12:43:15.417Z,1005.94
2022-08-12T12:44:30.343Z,1005.90
2022-08-12T12:45:19.615Z,1005.87
2022-08-12T12:46:15.383Z,1005.89
2022-08-12T12:47:29.356Z,1005.90
2022-08-12T12:48:15.362Z,1005.86
2022-08-12T12:49:15.519Z,1005.86
2022-08-12T12:50:34.870Z,1005.90
2022-08-12T12:51:22.188Z,1005.86
2022-08-12T12:52:19.835Z,1005.87
2022-08-12T12:54:08.845Z,1005.85
2022-08-12T12:54:16.245Z,1005.87
2022-08-12T12:55:15.296Z,1005.86
2022-08-12T12:56:15.501Z,1005.89
2022-08-12T12:57:15.271Z,1005.88
2022-08-12T12:58:15.261Z,1005.85
2022-08-12T12:59:55.056Z,1005.82
2022-08-12T13:00:15.253Z,1005.82
2022-08-12T13:01:25.548Z,1005.78
2022-08-12T13:02:15.261Z,1005.79
2022-08-12T13:03:19.166Z,1005.78
2022-08-12T13:04:15.213Z,1005.80
2022-08-12T13:05:16.240Z,1005.79
2022-08-12T13:06:15.187Z,1005.79
2022-08-12T13:07:15.176Z,1005.80
2022-08-12T13:08:15.187Z,1005.77
2022-08-12T13:09:15.181Z,1005.75
2022-08-12T13:10:15.152Z,1005.76
2022-08-12T13:11:15.143Z,1005.70
2022-08-12T13:12:15.129Z,1005.72
2022-08-12T13:14:08.795Z,1005.67
2022-08-12T13:14:28.608Z,1005.71
2022-08-12T13:15:15.110Z,1005.70
2022-08-12T13:16:18.688Z,1005.71
2022-08-12T13:17:15.086Z,1005.70
2022-08-12T13:18:15.069Z,1005.72
2022-08-12T13:19:15.245Z,1005.68
2022-08-12T13:20:15.050Z,1005.72
2022-08-12T13:21:15.665Z,1005.65
2022-08-12T13:22:15.036Z,1005.66
2022-08-12T13:23:36.570Z,1005.63
2022-08-12T13:24:15.029Z,1005.64
2022-08-12T13:25:15.007Z,1005.64
2022-08-12T13:26:14.997Z,1005.64
2022-08-12T13:27:14.986Z,1005.71
2022-08-12T13:28:14.971Z,1005.66
2022-08-12T13:29:15.332Z,1005.69
2022-08-12T13:30:14.949Z,1005.67
2022-08-12T13:31:14.948Z,1005.65
2022-08-12T13:32:31.508Z,1005.63
2022-08-12T13:33:17.546Z,1005.62
2022-08-12T13:34:31.922Z,1005.66
2022-08-12T13:35:19.352Z,1005.63
2022-08-12T13:36:17.994Z,1005.57
2022-08-12T13:37:14.897Z,1005.56
2022-08-12T13:38:14.868Z,1005.56
2022-08-12T13:39:16.224Z,1005.52
2022-08-12T13:40:14.853Z,1005.54
2022-08-12T13:41:14.851Z,1005.51
2022-08-12T13:42:14.978Z,1005.56
2022-08-12T13:43:14.831Z,1005.52
2022-08-12T13:44:14.838Z,1005.53
2022-08-12T13:45:14.807Z,1005.51
2022-08-12T13:46:14.794Z,1005.53
2022-08-12T13:47:19.771Z,1005.50
2022-08-12T13:48:14.781Z,1005.48
2022-08-12T13:49:17.304Z,1005.46
2022-08-12T13:50:14.760Z,1005.44
2022-08-12T13:51:14.753Z,1005.46
2022-08-12T13:52:14.743Z,1005.45
2022-08-12T13:53:24.951Z,1005.46
2022-08-12T13:54:14.740Z,1005.48
2022-08-12T13:55:14.719Z,1005.53
2022-08-12T13:56:14.699Z,1005.46
2022-08-12T13:57:16.995Z,1005.41
2022-08-12T13:58:14.678Z,1005.40
2022-08-12T13:59:14.687Z,1005.41
2022-08-12T14:00:14.660Z,1005.42
2022-08-12T14:01:14.652Z,1005.41
2022-08-12T14:02:14.665Z,1005.40
2022-08-12T14:03:14.689Z,1005.41
2022-08-12T14:04:14.661Z,1005.41
2022-08-12T14:05:31.037Z,1005.37
2022-08-12T14:06:15.602Z,1005.35
2022-08-12T14:07:14.593Z,1005.32
2022-08-12T14:08:14.580Z,1005.33
2022-08-12T14:09:17.913Z,1005.27
2022-08-12T14:10:16.361Z,1005.22
2022-08-12T14:11:14.559Z,1005.22
2022-08-12T14:12:16.318Z,1005.25
2022-08-12T14:13:17.287Z,1005.23
2022-08-12T14:14:14.548Z,1005.26
2022-08-12T14:15:14.521Z,1005.28
2022-08-12T14:16:14.620Z,1005.25
2022-08-12T14:17:14.504Z,1005.23
2022-08-12T14:18:14.491Z,1005.21
2022-08-12T14:19:22.008Z,1005.19
2022-08-12T14:20:14.467Z,1005.19
2022-08-12T14:21:18.153Z,1005.22
2022-08-12T14:22:14.456Z,1005.19
2022-08-12T14:24:01.521Z,1005.16
2022-08-12T14:24:14.446Z,1005.12
2022-08-12T14:25:14.429Z,1005.10
2022-08-12T14:26:17.065Z,1005.10
2022-08-12T14:27:14.407Z,1005.09
2022-08-12T14:28:14.397Z,1005.08
2022-08-12T14:29:21.843Z,1005.12
2022-08-12T14:30:17.137Z,1005.10
2022-08-12T14:31:18.355Z,1005.09
2022-08-12T14:32:16.607Z,1005.11
2022-08-12T14:33:14.349Z,1005.15
2022-08-12T14:34:14.347Z,1005.11
2022-08-12T14:35:14.324Z,1005.16
2022-08-12T14:36:14.317Z,1005.12
2022-08-12T14:37:55.574Z,1005.10
2022-08-12T14:38:14.299Z,1005.15
2022-08-12T14:39:14.375Z,1005.15
2022-08-12T14:40:18.285Z,1005.17
2022-08-12T14:41:14.638Z,1005.15
2022-08-12T14:42:14.254Z,1005.12
2022-08-12T14:43:14.275Z,1005.11
2022-08-12T14:44:59.326Z,1005.08
2022-08-12T14:45:14.245Z,1005.04
2022-08-12T14:46:14.217Z,1005.02
2022-08-12T14:47:14.211Z,1005.00
2022-08-12T14:48:14.872Z,1005.00
2022-08-12T14:50:41.276Z,1005.01
2022-08-12T14:52:55.672Z,1004.99
2022-08-12T14:54:55.858Z,1004.97
2022-08-12T14:56:59.551Z,1005.01
2022-08-12T14:57:20.377Z,1004.97
2022-08-12T14:57:57.010Z,1004.96
2022-08-12T14:58:51.809Z,1004.95
2022-08-12T14:59:57.305Z,1004.93
2022-08-12T15:00:50.865Z,1004.95
2022-08-12T15:01:44.982Z,1004.90
2022-08-12T15:02:44.942Z,1004.91
2022-08-12T15:03:52.966Z,1004.92
2022-08-12T15:04:45.332Z,1004.89
2022-08-12T15:06:06.342Z,1004.88
2022-08-12T15:06:52.582Z,1004.87
2022-08-12T15:07:51.202Z,1004.90
2022-08-12T15:08:44.893Z,1004.88
2022-08-12T15:09:44.883Z,1004.90
2022-08-12T15:10:49.850Z,1004.95
2022-08-12T15:11:54.758Z,1004.97
2022-08-12T15:12:44.852Z,1004.99
2022-08-12T15:13:44.830Z,1005.04
2022-08-12T15:14:45.735Z,1005.00
2022-08-12T15:15:45.793Z,1004.98
2022-08-12T15:16:44.800Z,1004.95
2022-08-12T15:17:44.792Z,1004.94
2022-08-12T15:18:55.343Z,1004.94
2022-08-12T15:20:31.700Z,1004.91
2022-08-12T15:20:44.771Z,1004.92
2022-08-12T15:22:37.786Z,1004.90
2022-08-12T15:22:53.809Z,1004.90
2022-08-12T15:23:54.914Z,1004.90
2022-08-12T15:24:44.746Z,1004.91
2022-08-12T15:25:47.376Z,1004.92
2022-08-12T15:26:44.707Z,1004.89
2022-08-12T15:28:03.901Z,1004.95
2022-08-12T15:28:54.086Z,1004.95
2022-08-12T15:29:44.747Z,1004.94
2022-08-12T15:30:44.666Z,1004.92
2022-08-12T15:31:59.748Z,1004.92
2022-08-12T15:32:44.653Z,1004.94
2022-08-12T15:33:46.285Z,1004.97
2022-08-12T15:34:44.645Z,1005.01
2022-08-12T15:35:53.055Z,1005.03
2022-08-12T15:36:54.596Z,1004.98
2022-08-12T15:38:09.141Z,1004.94
2022-08-12T15:38:44.604Z,1004.93
2022-08-12T15:40:00.782Z,1004.89
2022-08-12T15:40:48.314Z,1004.90
2022-08-12T15:41:50.039Z,1004.87
2022-08-12T15:42:46.793Z,1004.85
2022-08-12T15:44:16.396Z,1004.83
2022-08-12T15:44:44.587Z,1004.81
2022-08-12T15:45:47.344Z,1004.81
2022-08-12T15:46:44.512Z,1004.80
2022-08-12T15:47:49.955Z,1004.77
2022-08-12T15:48:47.146Z,1004.77
2022-08-12T15:50:00.118Z,1004.81
2022-08-12T15:50:45.479Z,1004.82
2022-08-12T15:51:58.748Z,1004.86
2022-08-12T15:52:44.457Z,1004.83
2022-08-12T15:53:44.441Z,1004.84
2022-08-12T15:54:45.488Z,1004.83
2022-08-12T15:55:46.136Z,1004.83
2022-08-12T15:56:44.410Z,1004.81
2022-08-12T15:57:44.574Z,1004.78
2022-08-12T15:58:44.396Z,1004.77
2022-08-12T16:00:00.839Z,1004.78
2022-08-12T16:00:44.369Z,1004.78
2022-08-12T16:01:44.391Z,1004.74
2022-08-12T16:02:50.529Z,1004.70
2022-08-12T16:03:46.488Z,1004.73
2022-08-12T16:04:44.370Z,1004.68
2022-08-12T16:06:19.016Z,1004.71
2022-08-12T16:07:03.747Z,1004.70
2022-08-12T16:07:44.333Z,1004.73
2022-08-12T16:08:44.286Z,1004.71
2022-08-12T16:09:56.757Z,1004.72
2022-08-12T16:10:44.271Z,1004.70
2022-08-12T16:11:44.261Z,1004.71
2022-08-12T16:12:54.716Z,1004.72
2022-08-12T16:13:44.630Z,1004.68
2022-08-12T16:14:44.262Z,1004.68
2022-08-12T16:16:02.001Z,1004.67
2022-08-12T16:16:48.614Z,1004.67
2022-08-12T16:18:15.271Z,1004.68
2022-08-12T16:18:44.718Z,1004.67
2022-08-12T16:20:03.768Z,1004.69
2022-08-12T16:20:46.975Z,1004.67
2022-08-12T16:21:51.965Z,1004.65
2022-08-12T16:22:44.176Z,1004.63
2022-08-12T16:23:52.022Z,1004.61
2022-08-12T16:24:44.223Z,1004.58
2022-08-12T16:26:05.462Z,1004.56
2022-08-12T16:26:45.029Z,1004.54
2022-08-12T16:27:44.123Z,1004.52
2022-08-12T16:28:44.108Z,1004.47
2022-08-12T16:29:53.067Z,1004.46
2022-08-12T16:30:44.087Z,1004.43
2022-08-12T16:31:44.075Z,1004.44
2022-08-12T16:32:46.375Z,1004.40
2022-08-12T16:33:59.728Z,1004.42
2022-08-12T16:34:55.493Z,1004.42
2022-08-12T16:35:44.056Z,1004.41
2022-08-12T16:36:44.032Z,1004.44
2022-08-12T16:38:25.423Z,1004.42
2022-08-12T16:38:46.011Z,1004.46
2022-08-12T16:40:00.253Z,1004.44
2022-08-12T16:40:46.210Z,1004.46
2022-08-12T16:41:44.072Z,1004.44
2022-08-12T16:42:53.737Z,1004.45
2022-08-12T16:43:43.970Z,1004.43
2022-08-12T16:44:49.658Z,1004.40
2022-08-12T16:46:05.319Z,1004.38
2022-08-12T16:46:43.929Z,1004.37
2022-08-12T16:47:58.733Z,1004.34
2022-08-12T16:48:43.905Z,1004.36
2022-08-12T16:49:44.011Z,1004.34
2022-08-12T16:50:43.884Z,1004.35
2022-08-12T16:51:46.324Z,1004.32
2022-08-12T16:52:43.871Z,1004.32
2022-08-12T16:53:45.574Z,1004.30
2022-08-12T16:54:43.849Z,1004.29
2022-08-12T16:55:43.916Z,1004.27
2022-08-12T16:56:50.900Z,1004.29
2022-08-12T16:57:44.170Z,1004.28
2022-08-12T16:58:43.809Z,1004.28
2022-08-12T16:59:54.638Z,1004.27
2022-08-12T17:00:48.314Z,1004.26
2022-08-12T17:01:43.830Z,1004.26
2022-08-12T17:02:43.763Z,1004.26
2022-08-12T17:03:52.184Z,1004.27
2022-08-12T17:04:52.890Z,1004.27
2022-08-12T17:05:43.749Z,1004.27
2022-08-12T17:06:44.209Z,1004.28
2022-08-12T17:07:44.802Z,1004.27
2022-08-12T17:08:47.277Z,1004.28
2022-08-12T17:09:43.718Z,1004.27
2022-08-12T17:10:43.667Z,1004.29
2022-08-12T17:11:43.693Z,1004.28
2022-08-12T17:12:43.644Z,1004.28
2022-08-12T17:13:53.672Z,1004.29
2022-08-12T17:14:43.677Z,1004.28
2022-08-12T17:15:57.773Z,1004.28
2022-08-12T17:16:45.636Z,1004.27
2022-08-12T17:17:43.595Z,1004.28
2022-08-12T17:18:56.861Z,1004.28
2022-08-12T17:20:30.620Z,1004.29
2022-08-12T17:20:46.625Z,1004.28
2022-08-12T17:22:01.638Z,1004.28
2022-08-12T17:22:43.551Z,1004.29
2022-08-12T17:23:48.562Z,1004.28